createdAt,value
2023-08-18T00:01:31.378Z,6.13
2023-08-18T00:03:02.853Z,6.95
2023-08-18T00:04:34.321Z,6.75
2023-08-18T00:06:06.520Z,5.85
2023-08-18T00:07:38.068Z,6.53
2023-08-18T00:09:09.472Z,5.60
2023-08-18T00:10:40.996Z,5.63
2023-08-18T00:12:12.469Z,6.32
2023-08-18T00:13:43.970Z,6.40
2023-08-18T00:15:15.500Z,6.25
2023-08-18T00:16:47.645Z,6.45
2023-08-18T00:18:19.190Z,6.13
2023-08-18T00:19:50.670Z,6.47
2023-08-18T00:21:22.168Z,6.68
2023-08-18T00:22:53.700Z,6.38
2023-08-18T00:24:25.503Z,6.68
2023-08-18T00:25:56.969Z,6.55
2023-08-18T00:27:28.764Z,6.18
2023-08-18T00:29:00.540Z,6.32
2023-08-18T00:30:32.301Z,6.13
2023-08-18T00:32:03.979Z,6.55
2023-08-18T00:33:35.504Z,7.38
2023-08-18T00:35:07.253Z,6.25
2023-08-18T00:36:38.762Z,5.95
2023-08-18T00:38:10.948Z,6.47
2023-08-18T00:39:42.524Z,7.32
2023-08-18T00:41:14.482Z,6.40
2023-08-18T00:42:45.979Z,6.50
2023-08-18T00:44:17.391Z,6.53
2023-08-18T00:45:51.137Z,6.07
2023-08-18T00:47:22.628Z,6.88
2023-08-18T00:48:59.069Z,7.07
2023-08-18T00:50:31.041Z,6.70
2023-08-18T00:52:04.530Z,5.78
2023-08-18T00:53:36.351Z,6.75
2023-08-18T00:55:09.267Z,7.35
2023-08-18T00:56:41.213Z,6.40
2023-08-18T00:58:12.801Z,5.93
2023-08-18T00:59:44.706Z,5.50
2023-08-18T01:01:16.891Z,5.50
2023-08-18T01:02:48.501Z,6.95
2023-08-18T01:04:20.072Z,6.15
2023-08-18T01:05:51.547Z,6.75
2023-08-18T01:07:22.992Z,6.03
2023-08-18T01:08:54.544Z,6.15
2023-08-18T01:10:26.695Z,5.95
2023-08-18T01:11:58.179Z,6.75
2023-08-18T01:13:48.347Z,6.07
2023-08-18T01:15:38.517Z,6.88
2023-08-18T01:17:17.983Z,6.40
2023-08-18T01:18:50.326Z,6.63
2023-08-18T01:20:22.918Z,6.35
2023-08-18T01:21:58.165Z,6.13
2023-08-18T01:23:38.712Z,6.97
2023-08-18T01:25:10.229Z,7.15
2023-08-18T01:26:42.501Z,6.00
2023-08-18T01:28:15.781Z,6.38
2023-08-18T01:29:47.345Z,6.40
2023-08-18T01:31:20.837Z,6.28
2023-08-18T01:32:53.147Z,6.70
2023-08-18T01:34:25.863Z,6.15
2023-08-18T01:35:59.911Z,6.28
2023-08-18T01:37:31.790Z,6.07
2023-08-18T01:39:05.739Z,6.00
2023-08-18T01:42:38.826Z,6.60
2023-08-18T01:44:14.572Z,6.53
2023-08-18T01:45:46.043Z,6.50
2023-08-18T01:47:19.059Z,5.65
2023-08-18T01:48:50.926Z,7.88
2023-08-18T01:50:22.475Z,5.78
2023-08-18T01:51:53.962Z,7.47
2023-08-18T01:53:25.439Z,6.45
2023-08-18T01:54:56.915Z,6.00
2023-08-18T01:56:28.410Z,6.28
2023-08-18T01:57:59.924Z,6.57
2023-08-18T01:59:31.790Z,5.95
2023-08-18T02:01:03.275Z,6.22
2023-08-18T02:02:35.720Z,7.07
2023-08-18T02:04:07.424Z,6.25
2023-08-18T02:05:40.328Z,5.95
2023-08-18T02:07:11.721Z,6.60
2023-08-18T02:08:43.193Z,7.35
2023-08-18T02:10:14.602Z,5.78
2023-08-18T02:11:46.088Z,7.50
2023-08-18T02:13:17.828Z,6.18
2023-08-18T02:14:49.394Z,6.20
2023-08-18T02:16:20.885Z,6.40
2023-08-18T02:17:52.396Z,6.05
2023-08-18T02:19:23.823Z,6.53
2023-08-18T02:20:56.627Z,6.97
2023-08-18T02:22:28.112Z,6.40
2023-08-18T02:23:59.594Z,5.95
2023-08-18T02:25:31.066Z,5.95
2023-08-18T02:27:02.482Z,6.00
2023-08-18T02:28:35.040Z,6.00
2023-08-18T02:30:07.019Z,7.20
2023-08-18T02:31:38.709Z,6.28
2023-08-18T02:33:10.192Z,6.20
2023-08-18T02:34:41.712Z,6.22
2023-08-18T02:36:14.134Z,5.93
2023-08-18T02:37:45.685Z,6.70
2023-08-18T02:39:17.142Z,5.68
2023-08-18T02:40:49.650Z,6.65
2023-08-18T02:42:21.242Z,5.57
2023-08-18T02:43:52.678Z,5.85
2023-08-18T02:45:24.071Z,6.25
2023-08-18T02:46:55.535Z,5.32
2023-08-18T02:48:28.952Z,5.07
2023-08-18T02:50:00.908Z,5.28
2023-08-18T02:51:32.331Z,5.47
2023-08-18T02:53:04.654Z,6.28
2023-08-18T02:54:36.219Z,5.25
2023-08-18T02:56:07.706Z,6.75
2023-08-18T02:57:39.190Z,5.47
2023-08-18T02:59:10.715Z,4.88
2023-08-18T03:00:42.298Z,5.13
2023-08-18T03:02:13.788Z,4.90
2023-08-18T03:03:45.370Z,5.13
2023-08-18T03:05:17.546Z,5.82
2023-08-18T03:06:48.995Z,5.25
2023-08-18T03:08:20.477Z,5.85
2023-08-18T03:09:51.930Z,6.70
2023-08-18T03:11:24.727Z,7.57
2023-08-18T03:12:56.196Z,5.18
2023-08-18T03:14:28.760Z,5.28
2023-08-18T03:16:00.440Z,6.30
2023-08-18T03:17:32.167Z,5.97
2023-08-18T03:19:04.119Z,6.40
2023-08-18T03:20:35.617Z,6.28
2023-08-18T03:22:07.055Z,6.32
2023-08-18T03:23:38.469Z,5.07
2023-08-18T03:25:10.632Z,5.93
2023-08-18T03:26:42.428Z,5.75
2023-08-18T03:28:14.011Z,5.32
2023-08-18T03:29:45.984Z,5.68
2023-08-18T03:31:17.433Z,5.80
2023-08-18T03:32:50.327Z,6.13
2023-08-18T03:34:21.815Z,6.30
2023-08-18T03:35:53.304Z,6.22
2023-08-18T03:37:24.766Z,5.65
2023-08-18T03:38:56.247Z,6.43
2023-08-18T03:40:27.866Z,5.65
2023-08-18T03:41:59.284Z,5.35
2023-08-18T03:43:31.224Z,5.82
2023-08-18T03:45:02.863Z,6.32
2023-08-18T03:46:35.025Z,5.40
2023-08-18T03:48:07.618Z,5.10
2023-08-18T03:49:39.356Z,5.57
2023-08-18T03:51:10.934Z,5.07
2023-08-18T03:52:42.402Z,4.70
2023-08-18T03:54:14.376Z,4.93
2023-08-18T03:55:49.921Z,5.70
2023-08-18T03:57:21.377Z,5.47
2023-08-18T03:58:52.953Z,5.20
2023-08-18T04:00:25.785Z,5.72
2023-08-18T04:01:57.311Z,4.82
2023-08-18T04:03:28.836Z,5.28
2023-08-18T04:05:00.777Z,5.93
2023-08-18T04:06:32.218Z,5.97
2023-08-18T04:08:04.228Z,4.93
2023-08-18T04:09:35.675Z,4.63
2023-08-18T04:11:07.333Z,6.35
2023-08-18T04:12:38.819Z,4.82
2023-08-18T04:14:10.782Z,5.47
2023-08-18T04:15:43.171Z,5.72
2023-08-18T04:17:14.843Z,5.78
2023-08-18T04:18:47.354Z,5.90
2023-08-18T04:20:18.790Z,5.97
2023-08-18T04:21:50.268Z,5.00
2023-08-18T04:23:21.720Z,5.47
2023-08-18T04:24:53.318Z,4.95
2023-08-18T04:26:25.916Z,6.07
2023-08-18T04:27:58.363Z,5.05
2023-08-18T04:29:29.842Z,5.50
2023-08-18T04:31:01.628Z,5.90
2023-08-18T04:32:42.281Z,6.05
2023-08-18T04:34:13.760Z,5.63
2023-08-18T04:35:45.231Z,5.22
2023-08-18T04:37:16.669Z,5.75
2023-08-18T04:38:48.248Z,6.43
2023-08-18T04:40:25.918Z,6.63
2023-08-18T04:42:00.906Z,6.53
2023-08-18T04:43:35.045Z,7.40
2023-08-18T04:45:07.468Z,7.82
2023-08-18T04:46:38.980Z,7.30
2023-08-18T04:48:17.282Z,7.38
2023-08-18T04:49:50.216Z,7.20
2023-08-18T04:51:22.178Z,7.43
2023-08-18T04:52:53.874Z,9.10
2023-08-18T04:54:25.356Z,8.43
2023-08-18T04:55:56.819Z,8.13
2023-08-18T04:57:28.580Z,8.18
2023-08-18T04:59:00.124Z,7.72
2023-08-18T05:00:31.786Z,7.32
2023-08-18T05:02:03.693Z,8.23
2023-08-18T05:03:35.296Z,7.15
2023-08-18T05:05:07.065Z,7.78
2023-08-18T05:06:38.582Z,7.05
2023-08-18T05:08:10.019Z,7.53
2023-08-18T05:09:41.471Z,7.03
2023-08-18T05:11:13.189Z,8.00
2023-08-18T05:12:44.666Z,7.20
2023-08-18T05:14:16.159Z,6.95
2023-08-18T05:15:47.824Z,6.93
2023-08-18T05:17:19.318Z,7.18
2023-08-18T05:18:50.823Z,6.78
2023-08-18T05:20:22.260Z,7.05
2023-08-18T05:21:53.706Z,6.75
2023-08-18T05:23:25.705Z,6.85
2023-08-18T05:24:57.849Z,7.32
2023-08-18T05:26:29.292Z,7.43
2023-08-18T05:28:00.736Z,6.30
2023-08-18T05:29:32.165Z,6.35
2023-08-18T05:31:04.074Z,8.00
2023-08-18T05:32:35.592Z,7.32
2023-08-18T05:34:07.142Z,6.60
2023-08-18T05:35:38.680Z,6.13
2023-08-18T05:37:10.120Z,7.28
2023-08-18T05:38:41.571Z,6.60
2023-08-18T05:40:13.010Z,6.40
2023-08-18T05:41:44.916Z,7.00
2023-08-18T05:43:17.569Z,6.65
2023-08-18T05:44:49.016Z,6.85
2023-08-18T05:46:20.555Z,6.97
2023-08-18T05:47:53.816Z,7.68
2023-08-18T05:49:25.351Z,6.90
2023-08-18T05:50:56.746Z,7.28
2023-08-18T05:52:28.415Z,7.43
2023-08-18T05:54:00.091Z,7.00
2023-08-18T05:55:31.864Z,7.25
2023-08-18T05:57:03.736Z,6.40
2023-08-18T05:58:35.226Z,6.03
2023-08-18T06:00:07.722Z,6.72
2023-08-18T06:01:44.560Z,6.95
2023-08-18T06:03:16.506Z,6.63
2023-08-18T06:04:47.980Z,6.18
2023-08-18T06:06:19.433Z,7.47
2023-08-18T06:07:50.919Z,7.70
2023-08-18T06:09:22.348Z,7.60
2023-08-18T06:10:54.105Z,7.47
2023-08-18T06:12:25.588Z,6.95
2023-08-18T06:13:57.003Z,6.47
2023-08-18T06:15:28.456Z,7.00
2023-08-18T06:16:59.908Z,7.10
2023-08-18T06:18:32.052Z,7.70
2023-08-18T06:20:03.735Z,7.13
2023-08-18T06:21:35.155Z,6.85
2023-08-18T06:23:06.605Z,6.60
2023-08-18T06:24:38.110Z,7.45
2023-08-18T06:26:09.522Z,7.55
2023-08-18T06:27:41.437Z,6.50
2023-08-18T06:29:12.849Z,7.28
2023-08-18T06:30:44.349Z,6.90
2023-08-18T06:32:16.038Z,7.07
2023-08-18T06:33:47.538Z,7.05
2023-08-18T06:35:19.039Z,7.03
2023-08-18T06:36:50.521Z,5.60
2023-08-18T06:38:21.944Z,6.28
2023-08-18T06:39:54.543Z,6.30
2023-08-18T06:41:26.056Z,5.53
2023-08-18T06:42:57.445Z,5.68
2023-08-18T06:44:29.002Z,6.03
2023-08-18T06:46:00.545Z,6.35
2023-08-18T06:47:33.248Z,5.63
2023-08-18T06:49:06.330Z,5.72
2023-08-18T06:50:37.824Z,6.57
2023-08-18T06:52:09.298Z,5.50
2023-08-18T06:53:40.837Z,7.45
2023-08-18T06:55:15.502Z,5.68
2023-08-18T06:56:51.106Z,5.95
2023-08-18T06:58:23.410Z,6.00
2023-08-18T06:59:54.886Z,5.30
2023-08-18T07:01:26.592Z,6.70
2023-08-18T07:02:58.143Z,5.70
2023-08-18T07:04:29.652Z,5.60
2023-08-18T07:06:01.107Z,5.63
2023-08-18T07:07:33.889Z,5.53
2023-08-18T07:09:05.452Z,5.20
2023-08-18T07:10:37.128Z,5.55
2023-08-18T07:12:08.724Z,5.00
2023-08-18T07:13:40.255Z,6.22
2023-08-18T07:15:11.665Z,5.70
2023-08-18T07:16:43.949Z,5.45
2023-08-18T07:18:15.583Z,5.57
2023-08-18T07:19:47.074Z,5.90
2023-08-18T07:21:18.543Z,5.00
2023-08-18T07:22:50.101Z,4.97
2023-08-18T07:24:21.906Z,4.90
2023-08-18T07:25:53.683Z,4.72
2023-08-18T07:27:25.323Z,5.07
2023-08-18T07:28:57.260Z,5.57
2023-08-18T07:30:29.186Z,4.60
2023-08-18T07:32:01.118Z,4.50
2023-08-18T07:33:32.672Z,5.05
2023-08-18T07:35:09.843Z,4.47
2023-08-18T07:36:41.317Z,5.43
2023-08-18T07:38:12.752Z,5.07
2023-08-18T07:39:44.213Z,4.65
2023-08-18T07:41:15.822Z,5.63
2023-08-18T07:42:47.455Z,4.78
2023-08-18T07:44:18.989Z,4.95
2023-08-18T07:45:50.491Z,4.72
2023-08-18T07:47:21.995Z,5.10
2023-08-18T07:48:53.483Z,5.15
2023-08-18T07:50:24.979Z,4.60
2023-08-18T07:51:56.502Z,5.40
2023-08-18T07:53:28.059Z,3.72
2023-08-18T07:54:59.626Z,3.92
2023-08-18T07:56:31.129Z,4.43
2023-08-18T07:58:02.661Z,5.47
2023-08-18T07:59:34.144Z,5.15
2023-08-18T08:01:05.710Z,4.43
2023-08-18T08:02:37.655Z,3.97
2023-08-18T08:04:09.509Z,3.92
2023-08-18T08:05:41.284Z,4.45
2023-08-18T08:07:13.519Z,4.10
2023-08-18T08:08:45.153Z,3.75
2023-08-18T08:10:16.651Z,3.40
2023-08-18T08:11:48.138Z,3.33
2023-08-18T08:13:19.689Z,4.25
2023-08-18T08:14:51.196Z,3.55
2023-08-18T08:16:22.788Z,3.72
2023-08-18T08:17:54.386Z,3.85
2023-08-18T08:19:26.252Z,4.82
2023-08-18T08:20:57.649Z,4.10
2023-08-18T08:22:29.377Z,4.30
2023-08-18T08:24:01.139Z,4.30
2023-08-18T08:25:33.951Z,4.38
2023-08-18T08:27:05.827Z,3.42
2023-08-18T08:28:37.462Z,3.60
2023-08-18T08:30:13.743Z,3.50
2023-08-18T08:31:47.776Z,4.55
2023-08-18T08:33:19.321Z,4.18
2023-08-18T08:34:51.430Z,3.72
2023-08-18T08:36:22.964Z,3.75
2023-08-18T08:37:54.430Z,4.10
2023-08-18T08:39:25.925Z,4.53
2023-08-18T08:40:58.028Z,4.75
2023-08-18T08:42:29.651Z,3.97
2023-08-18T08:44:01.212Z,4.05
2023-08-18T08:45:34.064Z,3.42
2023-08-18T08:47:06.006Z,3.92
2023-08-18T08:48:39.240Z,3.70
2023-08-18T08:50:12.750Z,3.85
2023-08-18T08:51:48.857Z,3.55
2023-08-18T08:53:24.421Z,3.25
2023-08-18T08:54:59.404Z,2.88
2023-08-18T08:56:32.316Z,2.85
2023-08-18T08:58:04.237Z,2.97
2023-08-18T08:59:36.195Z,3.20
2023-08-18T09:01:10.961Z,3.40
2023-08-18T09:02:43.235Z,2.83
2023-08-18T09:04:16.429Z,2.92
2023-08-18T09:05:47.924Z,2.45
2023-08-18T09:07:19.455Z,2.33
2023-08-18T09:08:50.900Z,2.67
2023-08-18T09:10:22.540Z,2.92
2023-08-18T09:11:58.280Z,2.80
2023-08-18T09:13:29.666Z,2.95
2023-08-18T09:15:01.202Z,2.63
2023-08-18T09:16:32.678Z,3.47
2023-08-18T09:18:04.687Z,3.08
2023-08-18T09:19:36.286Z,3.17
2023-08-18T09:21:08.254Z,2.97
2023-08-18T09:24:20.194Z,2.65
2023-08-18T09:25:51.857Z,2.95
2023-08-18T09:27:23.429Z,2.97
2023-08-18T09:28:54.919Z,3.05
2023-08-18T09:30:26.461Z,3.03
2023-08-18T09:31:58.270Z,3.53
2023-08-18T09:33:33.986Z,3.25
2023-08-18T09:35:10.998Z,2.70
2023-08-18T09:36:42.487Z,3.17
2023-08-18T09:38:15.128Z,3.03
2023-08-18T09:39:47.082Z,2.78
2023-08-18T09:41:18.506Z,3.13
2023-08-18T09:42:50.006Z,3.35
2023-08-18T09:44:21.903Z,3.15
2023-08-18T09:45:53.837Z,2.70
2023-08-18T09:47:26.542Z,2.72
2023-08-18T09:48:59.259Z,2.78
2023-08-18T09:50:31.206Z,3.35
2023-08-18T09:52:04.375Z,2.63
2023-08-18T09:53:36.698Z,3.00
2023-08-18T09:55:08.196Z,3.03
2023-08-18T09:56:40.340Z,3.33
2023-08-18T09:58:26.822Z,2.92
2023-08-18T09:59:59.580Z,2.58
2023-08-18T10:01:32.339Z,2.92
2023-08-18T10:03:04.505Z,2.88
2023-08-18T10:04:42.144Z,2.72
2023-08-18T10:06:13.765Z,2.67
2023-08-18T10:07:46.199Z,2.58
2023-08-18T10:09:17.678Z,3.50
2023-08-18T10:10:49.919Z,2.72
2023-08-18T10:12:21.760Z,2.85
2023-08-18T10:13:53.250Z,3.00
2023-08-18T10:15:26.040Z,3.08
2023-08-18T10:16:58.399Z,3.15
2023-08-18T10:18:30.001Z,2.78
2023-08-18T10:20:02.191Z,2.80
2023-08-18T10:21:33.793Z,2.92
2023-08-18T10:23:06.135Z,3.10
2023-08-18T10:24:37.749Z,2.75
2023-08-18T10:26:09.252Z,2.80
2023-08-18T10:27:43.853Z,2.70
2023-08-18T10:29:26.308Z,2.72
2023-08-18T10:31:06.746Z,2.70
2023-08-18T10:32:38.718Z,2.97
2023-08-18T10:34:10.232Z,2.95
2023-08-18T10:35:42.823Z,2.88
2023-08-18T10:37:17.628Z,2.42
2023-08-18T10:38:49.389Z,2.95
2023-08-18T10:40:24.753Z,2.75
2023-08-18T10:42:06.753Z,2.55
2023-08-18T10:43:42.318Z,2.70
2023-08-18T10:45:23.674Z,2.75
2023-08-18T10:46:55.092Z,2.78
2023-08-18T10:48:33.879Z,3.00
2023-08-18T10:50:05.680Z,2.85
2023-08-18T10:51:37.185Z,2.22
2023-08-18T10:53:12.345Z,2.33
2023-08-18T10:54:43.778Z,2.47
2023-08-18T10:56:15.267Z,2.30
2023-08-18T10:57:47.754Z,2.28
2023-08-18T10:59:19.993Z,3.10
2023-08-18T11:00:51.674Z,2.25
2023-08-18T11:02:23.173Z,2.50
2023-08-18T11:03:54.778Z,2.60
2023-08-18T11:05:26.812Z,2.30
2023-08-18T11:06:58.407Z,2.03
2023-08-18T11:08:30.868Z,1.83
2023-08-18T11:10:06.549Z,2.58
2023-08-18T11:11:38.436Z,2.55
2023-08-18T11:13:12.033Z,2.42
2023-08-18T11:14:43.561Z,1.88
2023-08-18T11:16:15.172Z,2.00
2023-08-18T11:17:46.881Z,2.47
2023-08-18T11:19:18.368Z,2.45
2023-08-18T11:20:50.885Z,2.22
2023-08-18T11:22:23.012Z,2.20
2023-08-18T11:23:54.517Z,2.33
2023-08-18T11:25:26.499Z,2.30
2023-08-18T11:26:58.618Z,2.65
2023-08-18T11:28:30.183Z,3.03
2023-08-18T11:30:02.241Z,2.75
2023-08-18T11:31:33.977Z,2.15
2023-08-18T11:33:05.736Z,2.40
2023-08-18T11:34:37.313Z,2.28
2023-08-18T11:36:10.912Z,2.47
2023-08-18T11:37:44.033Z,2.97
2023-08-18T11:39:16.078Z,2.85
2023-08-18T11:40:49.143Z,2.58
2023-08-18T11:42:21.401Z,2.35
2023-08-18T11:43:52.941Z,2.20
2023-08-18T11:45:25.527Z,2.45
2023-08-18T11:46:57.096Z,2.70
2023-08-18T11:48:30.204Z,2.47
2023-08-18T11:50:02.536Z,3.00
2023-08-18T11:51:34.213Z,2.40
2023-08-18T11:53:06.645Z,2.30
2023-08-18T11:54:39.736Z,2.20
2023-08-18T11:56:11.459Z,2.70
2023-08-18T11:57:47.449Z,2.35
2023-08-18T11:59:22.938Z,2.40
2023-08-18T12:00:54.499Z,2.22
2023-08-18T12:02:28.176Z,2.60
2023-08-18T12:04:00.080Z,2.33
2023-08-18T12:05:31.951Z,2.13
2023-08-18T12:07:04.967Z,2.28
2023-08-18T12:08:36.529Z,2.22
2023-08-18T12:10:08.876Z,2.90
2023-08-18T12:11:40.470Z,2.00
2023-08-18T12:13:11.990Z,2.10
2023-08-18T12:14:43.700Z,1.98
2023-08-18T12:16:15.894Z,1.98
2023-08-18T12:17:47.477Z,2.50
2023-08-18T12:19:21.753Z,2.53
2023-08-18T12:20:53.272Z,1.95
2023-08-18T12:22:24.812Z,2.05
2023-08-18T12:23:56.350Z,2.50
2023-08-18T12:25:27.857Z,2.20
2023-08-18T12:26:59.443Z,2.35
2023-08-18T12:28:33.437Z,2.15
2023-08-18T12:30:05.582Z,2.58
2023-08-18T12:31:37.583Z,2.15
2023-08-18T12:33:09.344Z,2.97
2023-08-18T12:34:40.975Z,2.70
2023-08-18T12:36:12.503Z,2.22
2023-08-18T12:37:44.054Z,2.25
2023-08-18T12:39:15.941Z,2.00
2023-08-18T12:40:47.465Z,2.75
2023-08-18T12:42:18.895Z,2.13
2023-08-18T12:43:50.406Z,2.65
2023-08-18T12:45:22.250Z,2.03
2023-08-18T12:46:53.826Z,2.30
2023-08-18T12:48:25.350Z,2.20
2023-08-18T12:49:56.881Z,2.10
2023-08-18T12:51:28.482Z,2.60
2023-08-18T12:53:00.123Z,2.53
2023-08-18T12:54:31.732Z,2.33
2023-08-18T12:56:03.416Z,2.97
2023-08-18T12:57:35.068Z,2.45
2023-08-18T12:59:06.898Z,2.22
2023-08-18T13:00:38.634Z,2.65
2023-08-18T13:02:10.277Z,2.03
2023-08-18T13:03:41.853Z,2.33
2023-08-18T13:05:13.432Z,2.13
2023-08-18T13:06:44.976Z,2.88
2023-08-18T13:08:16.483Z,2.15
2023-08-18T13:09:48.270Z,2.53
2023-08-18T13:11:19.890Z,2.63
2023-08-18T13:12:51.479Z,2.22
2023-08-18T13:14:25.902Z,2.55
2023-08-18T13:15:58.194Z,2.85
2023-08-18T13:17:29.760Z,2.53
2023-08-18T13:19:01.479Z,2.45
2023-08-18T13:20:33.065Z,2.28
2023-08-18T13:22:04.644Z,2.63
2023-08-18T13:23:36.459Z,2.55
2023-08-18T13:25:09.450Z,2.17
2023-08-18T13:26:41.395Z,2.70
2023-08-18T13:28:13.357Z,2.55
2023-08-18T13:29:48.205Z,2.50
2023-08-18T13:32:52.488Z,2.30
2023-08-18T13:34:24.247Z,2.63
2023-08-18T13:35:56.116Z,2.25
2023-08-18T13:37:28.011Z,2.03
2023-08-18T13:38:59.724Z,2.60
2023-08-18T13:40:32.039Z,2.28
2023-08-18T13:42:05.021Z,2.95
2023-08-18T13:43:36.512Z,2.40
2023-08-18T13:45:08.341Z,2.63
2023-08-18T13:46:40.642Z,2.60
2023-08-18T13:48:13.800Z,2.65
2023-08-18T13:49:45.699Z,2.58
2023-08-18T13:51:17.427Z,2.53
2023-08-18T13:52:49.401Z,2.72
2023-08-18T13:54:20.814Z,2.83
2023-08-18T13:55:52.251Z,2.78
2023-08-18T13:57:23.748Z,2.50
2023-08-18T13:58:55.260Z,2.67
2023-08-18T14:00:26.766Z,2.88
2023-08-18T14:01:58.326Z,3.00
2023-08-18T14:03:29.940Z,3.40
2023-08-18T14:05:01.419Z,2.50
2023-08-18T14:06:32.919Z,2.58
2023-08-18T14:08:05.084Z,2.35
2023-08-18T14:09:36.532Z,3.03
2023-08-18T14:11:09.503Z,3.28
2023-08-18T14:12:46.234Z,2.40
2023-08-18T14:14:17.658Z,2.58
2023-08-18T14:15:49.141Z,2.55
2023-08-18T14:17:34.549Z,3.33
2023-08-18T14:19:06.130Z,2.80
2023-08-18T14:20:38.040Z,2.80
2023-08-18T14:22:09.527Z,2.78
2023-08-18T14:23:41.002Z,2.75
2023-08-18T14:25:12.668Z,2.95
2023-08-18T14:26:44.187Z,2.70
2023-08-18T14:28:15.723Z,2.97
2023-08-18T14:29:47.356Z,2.95
2023-08-18T14:31:19.525Z,2.78
2023-08-18T14:32:51.430Z,3.17
2023-08-18T14:34:23.042Z,3.00
2023-08-18T14:35:54.629Z,2.65
2023-08-18T14:37:29.047Z,3.28
2023-08-18T14:39:00.522Z,2.50
2023-08-18T14:40:35.204Z,2.70
2023-08-18T14:42:06.713Z,2.38
2023-08-18T14:43:38.283Z,2.83
2023-08-18T14:45:10.066Z,2.85
2023-08-18T14:46:41.674Z,2.78
2023-08-18T14:48:13.580Z,2.90
2023-08-18T14:49:45.151Z,3.00
2023-08-18T14:51:16.616Z,3.03
2023-08-18T14:52:50.154Z,2.85
2023-08-18T14:54:21.859Z,2.90
2023-08-18T14:55:53.613Z,2.80
2023-08-18T14:57:25.190Z,3.10
2023-08-18T14:58:56.713Z,2.63
2023-08-18T15:00:29.889Z,2.78
2023-08-18T15:02:01.494Z,3.00
2023-08-18T15:03:33.946Z,2.90
2023-08-18T15:05:06.200Z,2.65
2023-08-18T15:06:37.701Z,2.72
2023-08-18T15:08:09.189Z,2.70
2023-08-18T15:09:40.658Z,2.80
2023-08-18T15:11:12.087Z,2.75
2023-08-18T15:12:43.579Z,2.83
2023-08-18T15:14:14.983Z,3.10
2023-08-18T15:15:46.465Z,3.13
2023-08-18T15:17:17.952Z,2.85
2023-08-18T15:18:49.425Z,3.75
2023-08-18T15:20:21.006Z,3.08
2023-08-18T15:21:52.445Z,2.95
2023-08-18T15:23:23.934Z,3.17
2023-08-18T15:24:55.654Z,3.05
2023-08-18T15:26:27.258Z,2.63
2023-08-18T15:27:58.817Z,3.00
2023-08-18T15:29:30.421Z,3.13
2023-08-18T15:31:03.936Z,2.60
2023-08-18T15:32:35.392Z,2.70
2023-08-18T15:34:06.866Z,2.45
2023-08-18T15:35:44.241Z,2.63
2023-08-18T15:37:15.715Z,2.80
2023-08-18T15:38:47.164Z,2.75
2023-08-18T15:40:18.631Z,2.60
2023-08-18T15:41:50.366Z,2.72
2023-08-18T15:43:21.782Z,3.15
2023-08-18T15:44:54.172Z,2.95
2023-08-18T15:46:25.680Z,3.15
2023-08-18T15:47:57.177Z,3.15
2023-08-18T15:49:28.783Z,3.00
2023-08-18T15:51:00.298Z,3.60
2023-08-18T15:52:31.763Z,2.90
2023-08-18T15:54:04.222Z,2.63
2023-08-18T15:55:44.807Z,3.20
2023-08-18T15:57:16.299Z,3.30
2023-08-18T15:58:48.737Z,2.42
2023-08-18T16:00:20.191Z,3.20
2023-08-18T16:01:51.652Z,2.88
2023-08-18T16:03:23.127Z,3.33
2023-08-18T16:04:54.552Z,3.33
2023-08-18T16:06:26.142Z,3.35
2023-08-18T16:07:57.567Z,2.83
2023-08-18T16:09:28.981Z,3.20
2023-08-18T16:11:00.518Z,2.92
2023-08-18T16:12:31.971Z,2.70
2023-08-18T16:14:21.503Z,3.30
2023-08-18T16:16:00.861Z,2.97
2023-08-18T16:17:33.218Z,3.88
2023-08-18T16:19:04.953Z,3.75
2023-08-18T16:20:36.481Z,3.08
2023-08-18T16:22:07.990Z,3.63
2023-08-18T16:23:41.353Z,2.88
2023-08-18T16:25:12.984Z,3.20
2023-08-18T16:26:44.563Z,2.83
2023-08-18T16:28:18.359Z,3.03
2023-08-18T16:29:49.919Z,2.90
2023-08-18T16:31:21.526Z,3.97
2023-08-18T16:32:53.006Z,3.40
2023-08-18T16:34:27.590Z,2.67
2023-08-18T16:35:59.518Z,3.42
2023-08-18T16:37:32.172Z,2.88
2023-08-18T16:39:04.653Z,2.80
2023-08-18T16:40:36.734Z,2.92
2023-08-18T16:42:10.618Z,3.42
2023-08-18T16:43:42.106Z,3.22
2023-08-18T16:45:13.668Z,3.40
2023-08-18T16:46:45.245Z,3.63
2023-08-18T16:48:16.869Z,2.80
2023-08-18T16:49:48.596Z,2.72
2023-08-18T16:51:20.035Z,2.88
2023-08-18T16:52:51.480Z,3.33
2023-08-18T16:54:23.046Z,3.20
2023-08-18T16:55:54.728Z,2.72
2023-08-18T16:57:26.240Z,2.70
2023-08-18T16:58:57.740Z,2.70
2023-08-18T17:00:29.192Z,3.15
2023-08-18T17:02:00.896Z,2.92
2023-08-18T17:03:38.297Z,3.40
2023-08-18T17:05:09.979Z,2.45
2023-08-18T17:06:41.513Z,3.10
2023-08-18T17:08:12.916Z,2.60
2023-08-18T17:09:47.461Z,3.22
2023-08-18T17:11:18.972Z,2.80
2023-08-18T17:12:50.500Z,3.15
2023-08-18T17:14:23.403Z,3.70
2023-08-18T17:15:55.125Z,3.05
2023-08-18T17:17:27.435Z,3.00
2023-08-18T17:18:58.989Z,3.22
2023-08-18T17:20:30.478Z,3.05
2023-08-18T17:22:01.989Z,3.58
2023-08-18T17:23:34.235Z,3.15
2023-08-18T17:25:06.286Z,3.13
2023-08-18T17:26:39.853Z,3.50
2023-08-18T17:28:11.417Z,4.47
2023-08-18T17:29:42.927Z,4.40
2023-08-18T17:31:14.584Z,3.22
2023-08-18T17:32:46.261Z,3.80
2023-08-18T17:34:17.858Z,2.55
2023-08-18T17:35:49.402Z,3.08
2023-08-18T17:37:20.980Z,3.38
2023-08-18T17:38:52.478Z,3.00
2023-08-18T17:40:23.984Z,2.90
2023-08-18T17:41:55.429Z,3.17
2023-08-18T17:43:26.844Z,3.30
2023-08-18T17:44:58.272Z,4.07
2023-08-18T17:46:29.898Z,3.55
2023-08-18T17:48:01.902Z,4.20
2023-08-18T17:49:33.380Z,3.55
2023-08-18T17:51:04.852Z,3.65
2023-08-18T17:52:36.269Z,3.53
2023-08-18T17:54:07.864Z,3.17
2023-08-18T17:55:39.368Z,3.42
2023-08-18T17:57:12.544Z,3.85
2023-08-18T17:58:44.084Z,3.50
2023-08-18T18:00:15.648Z,4.05
2023-08-18T18:01:48.771Z,4.45
2023-08-18T18:03:20.536Z,3.47
2023-08-18T18:04:52.038Z,4.30
2023-08-18T18:06:23.926Z,4.10
2023-08-18T18:07:55.517Z,4.03
2023-08-18T18:09:27.378Z,4.03
2023-08-18T18:10:58.910Z,4.22
2023-08-18T18:12:30.387Z,3.95
2023-08-18T18:14:01.833Z,4.05
2023-08-18T18:15:33.354Z,4.03
2023-08-18T18:17:04.851Z,4.13
2023-08-18T18:18:36.318Z,4.25
2023-08-18T18:20:07.958Z,4.43
2023-08-18T18:21:39.452Z,4.60
2023-08-18T18:23:10.949Z,4.10
2023-08-18T18:24:42.789Z,4.13
2023-08-18T18:26:14.269Z,4.53
2023-08-18T18:27:45.978Z,4.32
2023-08-18T18:29:17.950Z,4.07
2023-08-18T18:30:49.994Z,3.95
2023-08-18T18:32:21.502Z,4.18
2023-08-18T18:33:52.936Z,4.95
2023-08-18T18:35:26.600Z,4.97
2023-08-18T18:36:58.132Z,4.43
2023-08-18T18:38:29.614Z,5.30
2023-08-18T18:40:03.721Z,4.22
2023-08-18T18:41:35.368Z,4.32
2023-08-18T18:43:06.914Z,4.35
2023-08-18T18:44:38.490Z,4.40
2023-08-18T18:46:10.046Z,4.55
2023-08-18T18:47:41.597Z,4.35
2023-08-18T18:49:13.166Z,5.13
2023-08-18T18:50:44.650Z,4.78
2023-08-18T18:52:17.776Z,4.20
2023-08-18T18:53:49.392Z,4.20
2023-08-18T18:55:20.858Z,3.70
2023-08-18T18:56:52.362Z,3.63
2023-08-18T18:58:23.990Z,4.38
2023-08-18T18:59:55.515Z,4.47
2023-08-18T19:01:27.156Z,4.18
2023-08-18T19:02:58.779Z,4.32
2023-08-18T19:04:30.591Z,4.78
2023-08-18T19:06:02.309Z,4.63
2023-08-18T19:07:34.029Z,4.78
2023-08-18T19:09:05.761Z,5.18
2023-08-18T19:10:37.282Z,5.60
2023-08-18T19:12:08.781Z,6.13
2023-08-18T19:13:40.225Z,4.70
2023-08-18T19:15:11.833Z,5.60
2023-08-18T19:16:43.252Z,5.03
2023-08-18T19:18:16.900Z,4.22
2023-08-18T19:21:21.798Z,3.88
2023-08-18T19:22:53.639Z,4.60
2023-08-18T19:24:25.168Z,5.25
2023-08-18T19:25:56.935Z,5.30
2023-08-18T19:27:28.769Z,5.47
2023-08-18T19:29:00.698Z,7.20
2023-08-18T19:30:33.465Z,5.32
2023-08-18T19:32:06.966Z,5.57
2023-08-18T19:33:38.693Z,5.65
2023-08-18T19:35:16.248Z,4.90
2023-08-18T19:36:48.109Z,4.95
2023-08-18T19:38:19.540Z,5.85
2023-08-18T19:39:51.021Z,6.07
2023-08-18T19:41:22.470Z,6.05
2023-08-18T19:42:53.872Z,6.25
2023-08-18T19:44:25.326Z,6.75
2023-08-18T19:46:00.784Z,6.45
2023-08-18T19:47:33.463Z,6.80
2023-08-18T19:49:05.026Z,6.82
2023-08-18T19:50:36.460Z,5.90
2023-08-18T19:52:08.108Z,5.28
2023-08-18T19:53:39.581Z,6.03
2023-08-18T19:55:11.083Z,6.10
2023-08-18T19:56:42.723Z,5.53
2023-08-18T19:58:14.227Z,5.80
2023-08-18T19:59:45.657Z,5.40
2023-08-18T20:01:19.117Z,5.72
2023-08-18T20:02:50.728Z,5.72
2023-08-18T20:04:22.385Z,5.13
2023-08-18T20:05:54.024Z,5.60
2023-08-18T20:07:28.474Z,5.35
2023-08-18T20:09:00.060Z,5.28
2023-08-18T20:10:33.628Z,4.95
2023-08-18T20:12:05.379Z,5.53
2023-08-18T20:13:36.977Z,4.90
2023-08-18T20:15:08.647Z,5.30
2023-08-18T20:16:42.026Z,4.43
2023-08-18T20:18:13.545Z,5.13
2023-08-18T20:19:45.047Z,4.95
2023-08-18T20:21:16.550Z,4.03
2023-08-18T20:22:48.106Z,4.55
2023-08-18T20:24:19.602Z,4.22
2023-08-18T20:25:51.118Z,4.32
2023-08-18T20:27:22.580Z,4.82
2023-08-18T20:28:54.856Z,4.55
2023-08-18T20:30:26.467Z,4.88
2023-08-18T20:31:57.951Z,5.50
2023-08-18T20:33:29.397Z,4.63
2023-08-18T20:35:00.846Z,4.53